sensor_id;sensor_type;location;lat;lon;timestamp;temperature;humidity
16863;DHT22;52193;48.216;-1.698;2024-01-06T00:02:18;10.60;99.90
16863;DHT22;52193;48.216;-1.698;2024-01-06T00:04:45;10.50;99.90
16863;DHT22;52193;48.216;-1.698;2024-01-06T00:07:13;10.50;99.90
16863;DHT22;52193;48.216;-1.698;2024-01-06T00:09:40;10.50;99.90
16863;DHT22;52193;48.216;-1.698;2024-01-06T00:12:07;10.40;99.90
16863;DHT22;52193;48.216;-1.698;2024-01-06T00:14:34;10.40;99.90
16863;DHT22;52193;48.216;-1.698;2024-01-06T00:17:01;10.40;99.90
16863;DHT22;52193;48.216;-1.698;2024-01-06T00:19:27;10.30;99.90
16863;DHT22;52193;48.216;-1.698;2024-01-06T00:21:54;10.30;99.90
16863;DHT22;52193;48.216;-1.698;2024-01-06T00:24:23;10.30;99.90
16863;DHT22;52193;48.216;-1.698;2024-01-06T00:26:49;10.30;99.90
16863;DHT22;52193;48.216;-1.698;2024-01-06T00:29:16;10.40;99.90
16863;DHT22;52193;48.216;-1.698;2024-01-06T00:31:43;10.40;99.90
16863;DHT22;52193;48.216;-1.698;2024-01-06T00:34:10;10.40;99.90
16863;DHT22;52193;48.216;-1.698;2024-01-06T00:36:37;10.40;99.90
16863;DHT22;52193;48.216;-1.698;2024-01-06T00:39:03;10.40;99.90
16863;DHT22;52193;48.216;-1.698;2024-01-06T00:41:32;10.40;99.90
16863;DHT22;52193;48.216;-1.698;2024-01-06T00:43:59;10.40;99.90
16863;DHT22;52193;48.216;-1.698;2024-01-06T00:46:25;10.40;99.90
16863;DHT22;52193;48.216;-1.698;2024-01-06T00:48:52;10.30;99.90
16863;DHT22;52193;48.216;-1.698;2024-01-06T00:51:19;10.30;99.90
16863;DHT22;52193;48.216;-1.698;2024-01-06T00:53:46;10.40;99.90
16863;DHT22;52193;48.216;-1.698;2024-01-06T00:56:13;10.30;99.90
16863;DHT22;52193;48.216;-1.698;2024-01-06T00:58:41;10.30;99.90
16863;DHT22;52193;48.216;-1.698;2024-01-06T01:01:08;10.20;99.90
16863;DHT22;52193;48.216;-1.698;2024-01-06T01:03:35;10.20;99.90
16863;DHT22;52193;48.216;-1.698;2024-01-06T01:06:02;10.10;99.90
16863;DHT22;52193;48.216;-1.698;2024-01-06T01:08:29;10.00;99.90
16863;DHT22;52193;48.216;-1.698;2024-01-06T01:10:56;10.00;99.90
16863;DHT22;52193;48.216;-1.698;2024-01-06T01:13:23;10.00;99.90
16863;DHT22;52193;48.216;-1.698;2024-01-06T01:15:51;10.00;99.90
16863;DHT22;52193;48.216;-1.698;2024-01-06T01:18:18;10.00;99.90
16863;DHT22;52193;48.216;-1.698;2024-01-06T01:20:45;10.10;99.90
16863;DHT22;52193;48.216;-1.698;2024-01-06T01:23:12;10.10;99.90
16863;DHT22;52193;48.216;-1.698;2024-01-06T01:25:39;10.10;99.90
16863;DHT22;52193;48.216;-1.698;2024-01-06T01:28:06;10.20;99.90
16863;DHT22;52193;48.216;-1.698;2024-01-06T01:30:33;10.20;99.90
16863;DHT22;52193;48.216;-1.698;2024-01-06T01:33:01;10.20;99.90
16863;DHT22;52193;48.216;-1.698;2024-01-06T01:35:28;10.30;99.90
16863;DHT22;52193;48.216;-1.698;2024-01-06T01:37:55;10.30;99.90
16863;DHT22;52193;48.216;-1.698;2024-01-06T01:40:22;10.30;99.90
16863;DHT22;52193;48.216;-1.698;2024-01-06T01:42:49;10.30;99.90
16863;DHT22;52193;48.216;-1.698;2024-01-06T01:45:16;10.30;99.90
16863;DHT22;52193;48.216;-1.698;2024-01-06T01:47:43;10.40;99.90
16863;DHT22;52193;48.216;-1.698;2024-01-06T01:50:12;10.30;99.90
16863;DHT22;52193;48.216;-1.698;2024-01-06T01:52:41;10.30;99.90
16863;DHT22;52193;48.216;-1.698;2024-01-06T01:55:08;10.30;99.90
16863;DHT22;52193;48.216;-1.698;2024-01-06T01:57:35;10.30;99.90
16863;DHT22;52193;48.216;-1.698;2024-01-06T02:00:03;10.30;99.90
16863;DHT22;52193;48.216;-1.698;2024-01-06T02:02:30;10.30;99.90
16863;DHT22;52193;48.216;-1.698;2024-01-06T02:04:57;10.30;99.90
16863;DHT22;52193;48.216;-1.698;2024-01-06T02:07:26;10.40;99.90
16863;DHT22;52193;48.216;-1.698;2024-01-06T02:09:53;10.40;99.90
16863;DHT22;52193;48.216;-1.698;2024-01-06T02:12:20;10.40;99.90
16863;DHT22;52193;48.216;-1.698;2024-01-06T02:14:47;10.40;99.90
16863;DHT22;52193;48.216;-1.698;2024-01-06T02:17:14;10.40;99.90
16863;DHT22;52193;48.216;-1.698;2024-01-06T02:19:41;10.40;99.90
16863;DHT22;52193;48.216;-1.698;2024-01-06T02:22:09;10.50;99.90
16863;DHT22;52193;48.216;-1.698;2024-01-06T02:24:36;10.60;99.90
16863;DHT22;52193;48.216;-1.698;2024-01-06T02:27:03;10.60;99.90
16863;DHT22;52193;48.216;-1.698;2024-01-06T02:29:30;10.60;99.90
16863;DHT22;52193;48.216;-1.698;2024-01-06T02:31:57;10.70;99.90
16863;DHT22;52193;48.216;-1.698;2024-01-06T02:34:24;10.70;99.90
16863;DHT22;52193;48.216;-1.698;2024-01-06T02:36:51;10.70;99.90
16863;DHT22;52193;48.216;-1.698;2024-01-06T02:39:19;10.70;99.90
16863;DHT22;52193;48.216;-1.698;2024-01-06T02:41:46;10.80;99.90
16863;DHT22;52193;48.216;-1.698;2024-01-06T02:44:13;10.80;99.90
16863;DHT22;52193;48.216;-1.698;2024-01-06T02:46:40;10.80;99.90
16863;DHT22;52193;48.216;-1.698;2024-01-06T02:49:07;10.80;99.90
16863;DHT22;52193;48.216;-1.698;2024-01-06T02:51:34;10.90;99.90
16863;DHT22;52193;48.216;-1.698;2024-01-06T02:54:01;10.90;99.90
16863;DHT22;52193;48.216;-1.698;2024-01-06T02:56:29;10.90;99.90
16863;DHT22;52193;48.216;-1.698;2024-01-06T02:58:56;10.90;99.90
16863;DHT22;52193;48.216;-1.698;2024-01-06T03:01:23;10.90;99.90
16863;DHT22;52193;48.216;-1.698;2024-01-06T03:03:50;10.90;99.90
16863;DHT22;52193;48.216;-1.698;2024-01-06T03:06:17;10.90;99.90
16863;DHT22;52193;48.216;-1.698;2024-01-06T03:08:43;10.90;99.90
16863;DHT22;52193;48.216;-1.698;2024-01-06T03:11:10;10.90;99.90
16863;DHT22;52193;48.216;-1.698;2024-01-06T03:13:39;10.80;99.90
16863;DHT22;52193;48.216;-1.698;2024-01-06T03:16:05;10.80;99.90
16863;DHT22;52193;48.216;-1.698;2024-01-06T03:18:32;10.80;99.90
16863;DHT22;52193;48.216;-1.698;2024-01-06T03:20:59;10.70;99.90
16863;DHT22;52193;48.216;-1.698;2024-01-06T03:23:26;10.70;99.90
16863;DHT22;52193;48.216;-1.698;2024-01-06T03:25:53;10.70;99.90
16863;DHT22;52193;48.216;-1.698;2024-01-06T03:28:20;10.70;99.90
16863;DHT22;52193;48.216;-1.698;2024-01-06T03:30:48;10.70;99.90
16863;DHT22;52193;48.216;-1.698;2024-01-06T03:33:15;10.70;99.90
16863;DHT22;52193;48.216;-1.698;2024-01-06T03:35:42;10.70;99.90
16863;DHT22;52193;48.216;-1.698;2024-01-06T03:38:09;10.70;99.90
16863;DHT22;52193;48.216;-1.698;2024-01-06T03:40:36;10.70;99.90
16863;DHT22;52193;48.216;-1.698;2024-01-06T03:43:03;10.70;99.90
16863;DHT22;52193;48.216;-1.698;2024-01-06T03:45:30;10.80;99.90
16863;DHT22;52193;48.216;-1.698;2024-01-06T03:47:58;10.80;99.90
16863;DHT22;52193;48.216;-1.698;2024-01-06T03:50:25;10.80;99.90
16863;DHT22;52193;48.216;-1.698;2024-01-06T03:52:51;10.70;99.90
16863;DHT22;52193;48.216;-1.698;2024-01-06T03:55:18;10.70;99.90
16863;DHT22;52193;48.216;-1.698;2024-01-06T03:57:45;10.70;99.90
16863;DHT22;52193;48.216;-1.698;2024-01-06T04:00:13;10.70;99.90
16863;DHT22;52193;48.216;-1.698;2024-01-06T04:02:40;10.70;99.90
16863;DHT22;52193;48.216;-1.698;2024-01-06T04:05:08;10.70;99.90
16863;DHT22;52193;48.216;-1.698;2024-01-06T04:07:35;10.70;99.90
16863;DHT22;52193;48.216;-1.698;2024-01-06T04:10:02;10.70;99.90
16863;DHT22;52193;48.216;-1.698;2024-01-06T04:12:29;10.70;99.90
16863;DHT22;52193;48.216;-1.698;2024-01-06T04:14:56;10.70;99.90
16863;DHT22;52193;48.216;-1.698;2024-01-06T04:17:22;10.70;99.90
16863;DHT22;52193;48.216;-1.698;2024-01-06T04:19:51;10.70;99.90
16863;DHT22;52193;48.216;-1.698;2024-01-06T04:22:19;10.60;99.90
16863;DHT22;52193;48.216;-1.698;2024-01-06T04:24:46;10.60;99.90
16863;DHT22;52193;48.216;-1.698;2024-01-06T04:27:13;10.50;99.90
16863;DHT22;52193;48.216;-1.698;2024-01-06T04:29:40;10.50;99.90
16863;DHT22;52193;48.216;-1.698;2024-01-06T04:32:07;10.40;99.90
16863;DHT22;52193;48.216;-1.698;2024-01-06T04:34:34;10.40;99.90
16863;DHT22;52193;48.216;-1.698;2024-01-06T04:37:01;10.40;99.90
16863;DHT22;52193;48.216;-1.698;2024-01-06T04:39:29;10.40;99.90
16863;DHT22;52193;48.216;-1.698;2024-01-06T04:41:56;10.50;99.90
16863;DHT22;52193;48.216;-1.698;2024-01-06T04:44:24;10.50;99.90
16863;DHT22;52193;48.216;-1.698;2024-01-06T04:46:50;10.50;99.90
16863;DHT22;52193;48.216;-1.698;2024-01-06T04:49:17;10.50;99.90
16863;DHT22;52193;48.216;-1.698;2024-01-06T04:51:44;10.60;99.90
16863;DHT22;52193;48.216;-1.698;2024-01-06T04:54:11;10.60;99.90
16863;DHT22;52193;48.216;-1.698;2024-01-06T04:56:39;10.60;99.90
16863;DHT22;52193;48.216;-1.698;2024-01-06T04:59:06;10.70;99.90
16863;DHT22;52193;48.216;-1.698;2024-01-06T05:01:33;10.70;99.90
16863;DHT22;52193;48.216;-1.698;2024-01-06T05:04:00;10.70;99.90
16863;DHT22;52193;48.216;-1.698;2024-01-06T05:06:27;10.70;99.90
16863;DHT22;52193;48.216;-1.698;2024-01-06T05:08:54;10.70;99.90
16863;DHT22;52193;48.216;-1.698;2024-01-06T05:11:21;10.70;99.90
16863;DHT22;52193;48.216;-1.698;2024-01-06T05:13:49;10.70;99.90
16863;DHT22;52193;48.216;-1.698;2024-01-06T05:16:16;10.70;99.90
16863;DHT22;52193;48.216;-1.698;2024-01-06T05:18:42;10.70;99.90
16863;DHT22;52193;48.216;-1.698;2024-01-06T05:21:09;10.70;99.90
16863;DHT22;52193;48.216;-1.698;2024-01-06T05:23:36;10.70;99.90
16863;DHT22;52193;48.216;-1.698;2024-01-06T05:26:03;10.70;99.90
16863;DHT22;52193;48.216;-1.698;2024-01-06T05:28:31;10.80;99.90
16863;DHT22;52193;48.216;-1.698;2024-01-06T05:30:59;10.80;99.90
16863;DHT22;52193;48.216;-1.698;2024-01-06T05:33:26;10.80;99.90
16863;DHT22;52193;48.216;-1.698;2024-01-06T05:35:53;10.70;99.90
16863;DHT22;52193;48.216;-1.698;2024-01-06T05:38:20;10.70;99.90
16863;DHT22;52193;48.216;-1.698;2024-01-06T05:40:47;10.70;99.90
16863;DHT22;52193;48.216;-1.698;2024-01-06T05:43:14;10.70;99.90
16863;DHT22;52193;48.216;-1.698;2024-01-06T05:45:41;10.80;99.90
16863;DHT22;52193;48.216;-1.698;2024-01-06T05:48:10;10.70;99.90
16863;DHT22;52193;48.216;-1.698;2024-01-06T05:50:37;10.70;99.90
16863;DHT22;52193;48.216;-1.698;2024-01-06T05:53:04;10.80;99.90
16863;DHT22;52193;48.216;-1.698;2024-01-06T05:55:31;10.70;99.90
16863;DHT22;52193;48.216;-1.698;2024-01-06T05:57:58;10.70;99.90
16863;DHT22;52193;48.216;-1.698;2024-01-06T06:00:26;10.70;99.90
16863;DHT22;52193;48.216;-1.698;2024-01-06T06:02:53;10.60;99.90
16863;DHT22;52193;48.216;-1.698;2024-01-06T06:05:21;10.60;99.90
16863;DHT22;52193;48.216;-1.698;2024-01-06T06:07:48;10.60;99.90
16863;DHT22;52193;48.216;-1.698;2024-01-06T06:10:15;10.60;99.90
16863;DHT22;52193;48.216;-1.698;2024-01-06T06:12:44;10.50;99.90
16863;DHT22;52193;48.216;-1.698;2024-01-06T06:15:11;10.50;99.90
16863;DHT22;52193;48.216;-1.698;2024-01-06T06:17:39;10.50;99.90
16863;DHT22;52193;48.216;-1.698;2024-01-06T06:20:06;10.40;99.90
16863;DHT22;52193;48.216;-1.698;2024-01-06T06:22:35;10.40;99.90
16863;DHT22;52193;48.216;-1.698;2024-01-06T06:25:02;10.30;99.90
16863;DHT22;52193;48.216;-1.698;2024-01-06T06:27:29;10.20;99.90
16863;DHT22;52193;48.216;-1.698;2024-01-06T06:29:56;10.20;99.90
16863;DHT22;52193;48.216;-1.698;2024-01-06T06:32:22;10.10;99.90
16863;DHT22;52193;48.216;-1.698;2024-01-06T06:34:50;10.00;99.90
16863;DHT22;52193;48.216;-1.698;2024-01-06T06:37:18;10.00;99.90
16863;DHT22;52193;48.216;-1.698;2024-01-06T06:39:46;9.90;99.90
16863;DHT22;52193;48.216;-1.698;2024-01-06T06:42:13;9.80;99.90
16863;DHT22;52193;48.216;-1.698;2024-01-06T06:44:40;9.80;99.90
16863;DHT22;52193;48.216;-1.698;2024-01-06T06:47:07;9.80;99.90
16863;DHT22;52193;48.216;-1.698;2024-01-06T06:49:34;9.70;99.90
16863;DHT22;52193;48.216;-1.698;2024-01-06T06:52:01;9.70;99.90
16863;DHT22;52193;48.216;-1.698;2024-01-06T06:54:29;9.70;99.90
16863;DHT22;52193;48.216;-1.698;2024-01-06T06:56:57;9.70;99.90
16863;DHT22;52193;48.216;-1.698;2024-01-06T06:59:24;9.70;99.90
16863;DHT22;52193;48.216;-1.698;2024-01-06T07:01:51;9.80;99.90
16863;DHT22;52193;48.216;-1.698;2024-01-06T07:04:18;9.80;99.90
16863;DHT22;52193;48.216;-1.698;2024-01-06T07:06:45;9.80;99.90
16863;DHT22;52193;48.216;-1.698;2024-01-06T07:09:12;9.80;99.90
16863;DHT22;52193;48.216;-1.698;2024-01-06T07:11:39;9.80;99.90
16863;DHT22;52193;48.216;-1.698;2024-01-06T07:14:07;9.90;99.90
16863;DHT22;52193;48.216;-1.698;2024-01-06T07:16:34;9.90;99.90
16863;DHT22;52193;48.216;-1.698;2024-01-06T07:19:01;9.90;99.90
16863;DHT22;52193;48.216;-1.698;2024-01-06T07:21:28;9.90;99.90
16863;DHT22;52193;48.216;-1.698;2024-01-06T07:23:55;9.80;99.90
16863;DHT22;52193;48.216;-1.698;2024-01-06T07:26:21;9.80;99.90
16863;DHT22;52193;48.216;-1.698;2024-01-06T07:28:48;9.80;99.90
16863;DHT22;52193;48.216;-1.698;2024-01-06T07:31:16;9.90;99.90
16863;DHT22;52193;48.216;-1.698;2024-01-06T07:33:43;9.80;99.90
16863;DHT22;52193;48.216;-1.698;2024-01-06T07:36:10;9.80;99.90
16863;DHT22;52193;48.216;-1.698;2024-01-06T07:38:37;9.90;99.90
16863;DHT22;52193;48.216;-1.698;2024-01-06T07:41:04;9.90;99.90
16863;DHT22;52193;48.216;-1.698;2024-01-06T07:43:31;9.90;99.90
16863;DHT22;52193;48.216;-1.698;2024-01-06T07:45:58;9.90;99.90
16863;DHT22;52193;48.216;-1.698;2024-01-06T07:48:26;9.90;99.90
16863;DHT22;52193;48.216;-1.698;2024-01-06T07:50:53;9.90;99.90
16863;DHT22;52193;48.216;-1.698;2024-01-06T07:53:20;9.80;99.90
16863;DHT22;52193;48.216;-1.698;2024-01-06T07:55:47;9.90;99.90
16863;DHT22;52193;48.216;-1.698;2024-01-06T07:58:14;9.90;99.90
16863;DHT22;52193;48.216;-1.698;2024-01-06T08:00:41;9.90;99.90
16863;DHT22;52193;48.216;-1.698;2024-01-06T08:03:08;9.90;99.90
16863;DHT22;52193;48.216;-1.698;2024-01-06T08:05:38;9.90;99.90
16863;DHT22;52193;48.216;-1.698;2024-01-06T08:08:05;9.90;99.90
16863;DHT22;52193;48.216;-1.698;2024-01-06T08:10:32;10.00;99.90
16863;DHT22;52193;48.216;-1.698;2024-01-06T08:12:59;10.00;99.90
16863;DHT22;52193;48.216;-1.698;2024-01-06T08:15:26;10.00;99.90
16863;DHT22;52193;48.216;-1.698;2024-01-06T08:17:52;10.00;99.90
16863;DHT22;52193;48.216;-1.698;2024-01-06T08:20:19;10.00;99.90
16863;DHT22;52193;48.216;-1.698;2024-01-06T08:22:47;10.00;99.90
16863;DHT22;52193;48.216;-1.698;2024-01-06T08:25:14;10.10;99.90
16863;DHT22;52193;48.216;-1.698;2024-01-06T08:27:42;10.10;99.90
16863;DHT22;52193;48.216;-1.698;2024-01-06T08:30:10;10.10;99.90
16863;DHT22;52193;48.216;-1.698;2024-01-06T08:32:37;10.10;99.90
16863;DHT22;52193;48.216;-1.698;2024-01-06T08:35:05;10.10;99.90
16863;DHT22;52193;48.216;-1.698;2024-01-06T08:37:32;10.10;99.90
16863;DHT22;52193;48.216;-1.698;2024-01-06T08:40:00;10.10;99.90
16863;DHT22;52193;48.216;-1.698;2024-01-06T08:42:28;10.20;99.90
16863;DHT22;52193;48.216;-1.698;2024-01-06T08:44:55;10.30;99.90
16863;DHT22;52193;48.216;-1.698;2024-01-06T08:47:22;10.30;99.90
16863;DHT22;52193;48.216;-1.698;2024-01-06T08:49:49;10.40;99.90
16863;DHT22;52193;48.216;-1.698;2024-01-06T08:52:16;10.40;99.90
16863;DHT22;52193;48.216;-1.698;2024-01-06T08:54:43;10.50;99.90
16863;DHT22;52193;48.216;-1.698;2024-01-06T08:57:11;10.50;99.90
16863;DHT22;52193;48.216;-1.698;2024-01-06T08:59:38;10.50;99.90
16863;DHT22;52193;48.216;-1.698;2024-01-06T09:02:05;10.50;99.90
16863;DHT22;52193;48.216;-1.698;2024-01-06T09:04:33;10.50;99.90
16863;DHT22;52193;48.216;-1.698;2024-01-06T09:07:00;10.60;99.90
16863;DHT22;52193;48.216;-1.698;2024-01-06T09:09:27;10.60;99.90
16863;DHT22;52193;48.216;-1.698;2024-01-06T09:11:55;10.60;99.90
16863;DHT22;52193;48.216;-1.698;2024-01-06T09:14:23;10.60;99.90
16863;DHT22;52193;48.216;-1.698;2024-01-06T09:16:50;10.50;99.90
16863;DHT22;52193;48.216;-1.698;2024-01-06T09:19:17;10.50;99.90
16863;DHT22;52193;48.216;-1.698;2024-01-06T09:21:44;10.50;99.90
16863;DHT22;52193;48.216;-1.698;2024-01-06T09:24:11;10.60;99.90
16863;DHT22;52193;48.216;-1.698;2024-01-06T09:26:37;10.60;99.90
16863;DHT22;52193;48.216;-1.698;2024-01-06T09:29:04;10.60;99.90
16863;DHT22;52193;48.216;-1.698;2024-01-06T09:31:33;10.60;99.90
16863;DHT22;52193;48.216;-1.698;2024-01-06T09:34:01;10.70;99.90
16863;DHT22;52193;48.216;-1.698;2024-01-06T09:36:29;10.70;99.90
16863;DHT22;52193;48.216;-1.698;2024-01-06T09:38:56;10.70;99.90
16863;DHT22;52193;48.216;-1.698;2024-01-06T09:41:23;10.80;99.90
16863;DHT22;52193;48.216;-1.698;2024-01-06T09:43:50;10.80;99.90
16863;DHT22;52193;48.216;-1.698;2024-01-06T09:46:23;10.80;99.90
16863;DHT22;52193;48.216;-1.698;2024-01-06T09:48:52;10.80;99.90
16863;DHT22;52193;48.216;-1.698;2024-01-06T09:51:20;10.90;99.90
16863;DHT22;52193;48.216;-1.698;2024-01-06T09:53:49;10.90;99.90
16863;DHT22;52193;48.216;-1.698;2024-01-06T09:56:16;10.90;99.90
16863;DHT22;52193;48.216;-1.698;2024-01-06T09:58:44;11.00;99.90
16863;DHT22;52193;48.216;-1.698;2024-01-06T10:01:11;11.00;99.90
16863;DHT22;52193;48.216;-1.698;2024-01-06T10:03:40;11.00;99.90
16863;DHT22;52193;48.216;-1.698;2024-01-06T10:06:08;11.00;99.90
16863;DHT22;52193;48.216;-1.698;2024-01-06T10:08:35;11.00;99.90
16863;DHT22;52193;48.216;-1.698;2024-01-06T10:11:02;11.00;99.90
16863;DHT22;52193;48.216;-1.698;2024-01-06T10:13:29;11.00;99.90
16863;DHT22;52193;48.216;-1.698;2024-01-06T10:15:56;11.00;99.90
16863;DHT22;52193;48.216;-1.698;2024-01-06T10:18:25;11.00;99.90
16863;DHT22;52193;48.216;-1.698;2024-01-06T10:20:54;11.00;99.90
16863;DHT22;52193;48.216;-1.698;2024-01-06T10:23:23;10.90;99.90
16863;DHT22;52193;48.216;-1.698;2024-01-06T10:25:52;10.90;99.90
16863;DHT22;52193;48.216;-1.698;2024-01-06T10:28:20;10.90;99.90
16863;DHT22;52193;48.216;-1.698;2024-01-06T10:30:48;10.90;99.90
16863;DHT22;52193;48.216;-1.698;2024-01-06T10:33:15;10.90;99.90
16863;DHT22;52193;48.216;-1.698;2024-01-06T10:35:42;10.90;99.90
16863;DHT22;52193;48.216;-1.698;2024-01-06T10:38:11;11.00;99.90
16863;DHT22;52193;48.216;-1.698;2024-01-06T10:40:40;11.00;99.90
16863;DHT22;52193;48.216;-1.698;2024-01-06T10:43:07;11.00;99.90
16863;DHT22;52193;48.216;-1.698;2024-01-06T10:45:35;11.10;99.90
16863;DHT22;52193;48.216;-1.698;2024-01-06T10:48:05;11.10;99.90
16863;DHT22;52193;48.216;-1.698;2024-01-06T10:50:32;11.10;99.90
16863;DHT22;52193;48.216;-1.698;2024-01-06T10:53:00;11.10;99.90
16863;DHT22;52193;48.216;-1.698;2024-01-06T10:55:29;11.10;99.90
16863;DHT22;52193;48.216;-1.698;2024-01-06T10:57:59;11.20;99.90
16863;DHT22;52193;48.216;-1.698;2024-01-06T11:00:27;11.20;99.90
16863;DHT22;52193;48.216;-1.698;2024-01-06T11:02:55;11.20;99.90
16863;DHT22;52193;48.216;-1.698;2024-01-06T11:05:23;11.20;99.90
16863;DHT22;52193;48.216;-1.698;2024-01-06T11:07:50;11.30;99.90
16863;DHT22;52193;48.216;-1.698;2024-01-06T11:10:21;11.30;99.90
16863;DHT22;52193;48.216;-1.698;2024-01-06T11:13:07;11.40;99.90
16863;DHT22;52193;48.216;-1.698;2024-01-06T11:15:43;11.40;99.90
16863;DHT22;52193;48.216;-1.698;2024-01-06T11:18:31;11.50;99.90
16863;DHT22;52193;48.216;-1.698;2024-01-06T11:21:18;11.50;99.90
16863;DHT22;52193;48.216;-1.698;2024-01-06T11:26:50;11.60;99.90
16863;DHT22;52193;48.216;-1.698;2024-01-06T11:29:19;11.60;99.90
16863;DHT22;52193;48.216;-1.698;2024-01-06T11:32:22;11.60;99.90
16863;DHT22;52193;48.216;-1.698;2024-01-06T11:34:51;11.70;99.90
16863;DHT22;52193;48.216;-1.698;2024-01-06T11:37:23;11.70;99.90
16863;DHT22;52193;48.216;-1.698;2024-01-06T11:39:50;11.70;99.90
16863;DHT22;52193;48.216;-1.698;2024-01-06T11:42:18;11.80;99.90
16863;DHT22;52193;48.216;-1.698;2024-01-06T11:44:51;11.90;99.90
16863;DHT22;52193;48.216;-1.698;2024-01-06T11:47:18;11.90;99.90
16863;DHT22;52193;48.216;-1.698;2024-01-06T11:49:54;11.90;99.90
16863;DHT22;52193;48.216;-1.698;2024-01-06T11:52:22;12.00;99.90
16863;DHT22;52193;48.216;-1.698;2024-01-06T11:54:51;12.00;99.90
16863;DHT22;52193;48.216;-1.698;2024-01-06T11:57:18;12.00;99.90
16863;DHT22;52193;48.216;-1.698;2024-01-06T11:59:46;12.00;99.90
16863;DHT22;52193;48.216;-1.698;2024-01-06T12:02:14;12.00;99.90
16863;DHT22;52193;48.216;-1.698;2024-01-06T12:04:42;12.00;99.90
16863;DHT22;52193;48.216;-1.698;2024-01-06T12:07:09;12.00;99.90
16863;DHT22;52193;48.216;-1.698;2024-01-06T12:09:38;12.00;99.90
16863;DHT22;52193;48.216;-1.698;2024-01-06T12:12:06;12.00;99.90
16863;DHT22;52193;48.216;-1.698;2024-01-06T12:14:34;12.00;99.90
16863;DHT22;52193;48.216;-1.698;2024-01-06T12:17:01;12.00;99.90
16863;DHT22;52193;48.216;-1.698;2024-01-06T12:19:31;12.10;99.90
16863;DHT22;52193;48.216;-1.698;2024-01-06T12:21:58;12.10;99.90
16863;DHT22;52193;48.216;-1.698;2024-01-06T12:24:27;12.00;99.90
16863;DHT22;52193;48.216;-1.698;2024-01-06T12:26:55;12.00;99.90
16863;DHT22;52193;48.216;-1.698;2024-01-06T12:29:24;12.00;99.90
16863;DHT22;52193;48.216;-1.698;2024-01-06T12:31:52;12.00;99.90
16863;DHT22;52193;48.216;-1.698;2024-01-06T12:34:20;12.00;99.90
16863;DHT22;52193;48.216;-1.698;2024-01-06T12:36:53;12.00;99.90
16863;DHT22;52193;48.216;-1.698;2024-01-06T12:39:21;12.00;99.90
16863;DHT22;52193;48.216;-1.698;2024-01-06T12:41:50;12.00;99.90
16863;DHT22;52193;48.216;-1.698;2024-01-06T12:44:17;12.10;99.90
16863;DHT22;52193;48.216;-1.698;2024-01-06T12:46:43;12.10;99.90
16863;DHT22;52193;48.216;-1.698;2024-01-06T12:49:10;12.10;99.90
16863;DHT22;52193;48.216;-1.698;2024-01-06T12:51:37;12.10;99.90
16863;DHT22;52193;48.216;-1.698;2024-01-06T12:54:05;12.20;99.90
16863;DHT22;52193;48.216;-1.698;2024-01-06T12:56:32;12.20;99.90
16863;DHT22;52193;48.216;-1.698;2024-01-06T12:58:59;12.20;99.90
16863;DHT22;52193;48.216;-1.698;2024-01-06T13:01:26;12.30;99.90
16863;DHT22;52193;48.216;-1.698;2024-01-06T13:03:53;12.30;99.90
16863;DHT22;52193;48.216;-1.698;2024-01-06T13:06:20;12.30;99.90
16863;DHT22;52193;48.216;-1.698;2024-01-06T13:08:47;12.40;99.90
16863;DHT22;52193;48.216;-1.698;2024-01-06T13:11:16;12.40;99.90
16863;DHT22;52193;48.216;-1.698;2024-01-06T13:13:43;12.50;99.90
16863;DHT22;52193;48.216;-1.698;2024-01-06T13:16:10;12.50;99.90
16863;DHT22;52193;48.216;-1.698;2024-01-06T13:18:37;12.60;99.90
16863;DHT22;52193;48.216;-1.698;2024-01-06T13:21:04;12.60;99.90
16863;DHT22;52193;48.216;-1.698;2024-01-06T13:23:31;12.70;99.90
16863;DHT22;52193;48.216;-1.698;2024-01-06T13:25:58;12.70;99.90
16863;DHT22;52193;48.216;-1.698;2024-01-06T13:28:27;12.70;99.90
16863;DHT22;52193;48.216;-1.698;2024-01-06T13:30:53;12.70;99.90
16863;DHT22;52193;48.216;-1.698;2024-01-06T13:33:20;12.70;99.90
16863;DHT22;52193;48.216;-1.698;2024-01-06T13:35:48;12.70;99.90
16863;DHT22;52193;48.216;-1.698;2024-01-06T13:38:15;12.70;99.90
16863;DHT22;52193;48.216;-1.698;2024-01-06T13:40:42;12.70;99.90
16863;DHT22;52193;48.216;-1.698;2024-01-06T13:43:09;12.70;99.90
16863;DHT22;52193;48.216;-1.698;2024-01-06T13:45:42;12.70;99.90
16863;DHT22;52193;48.216;-1.698;2024-01-06T13:48:10;12.70;99.90
16863;DHT22;52193;48.216;-1.698;2024-01-06T13:50:37;12.80;99.90
16863;DHT22;52193;48.216;-1.698;2024-01-06T13:53:05;12.80;99.90
16863;DHT22;52193;48.216;-1.698;2024-01-06T13:55:32;12.80;99.90
16863;DHT22;52193;48.216;-1.698;2024-01-06T13:58:00;12.90;99.90
16863;DHT22;52193;48.216;-1.698;2024-01-06T14:00:25;12.80;99.90
16863;DHT22;52193;48.216;-1.698;2024-01-06T14:02:54;12.90;99.90
16863;DHT22;52193;48.216;-1.698;2024-01-06T14:05:21;12.90;99.90
16863;DHT22;52193;48.216;-1.698;2024-01-06T14:07:49;12.90;99.90
16863;DHT22;52193;48.216;-1.698;2024-01-06T14:10:16;12.90;99.90
16863;DHT22;52193;48.216;-1.698;2024-01-06T14:12:43;12.90;99.90
16863;DHT22;52193;48.216;-1.698;2024-01-06T14:15:10;12.90;99.90
16863;DHT22;52193;48.216;-1.698;2024-01-06T14:17:37;12.90;99.90
16863;DHT22;52193;48.216;-1.698;2024-01-06T14:20:07;12.90;99.90
16863;DHT22;52193;48.216;-1.698;2024-01-06T14:22:38;12.90;99.90
16863;DHT22;52193;48.216;-1.698;2024-01-06T14:25:06;13.00;99.90
16863;DHT22;52193;48.216;-1.698;2024-01-06T14:27:33;13.00;99.90
16863;DHT22;52193;48.216;-1.698;2024-01-06T14:30:00;13.00;99.90
16863;DHT22;52193;48.216;-1.698;2024-01-06T14:32:27;13.10;99.90
16863;DHT22;52193;48.216;-1.698;2024-01-06T14:34:54;13.10;99.90
16863;DHT22;52193;48.216;-1.698;2024-01-06T14:37:23;13.20;99.90
16863;DHT22;52193;48.216;-1.698;2024-01-06T14:39:49;13.20;99.90
16863;DHT22;52193;48.216;-1.698;2024-01-06T14:42:16;13.20;99.90
16863;DHT22;52193;48.216;-1.698;2024-01-06T14:44:44;13.20;99.90
16863;DHT22;52193;48.216;-1.698;2024-01-06T14:47:11;13.20;99.90
16863;DHT22;52193;48.216;-1.698;2024-01-06T14:49:39;13.30;99.90
16863;DHT22;52193;48.216;-1.698;2024-01-06T14:52:06;13.30;99.90
16863;DHT22;52193;48.216;-1.698;2024-01-06T14:54:36;13.30;99.90
16863;DHT22;52193;48.216;-1.698;2024-01-06T14:57:03;13.30;99.90
16863;DHT22;52193;48.216;-1.698;2024-01-06T14:59:30;13.30;99.90
16863;DHT22;52193;48.216;-1.698;2024-01-06T15:01:57;13.40;99.90
16863;DHT22;52193;48.216;-1.698;2024-01-06T15:04:24;13.40;99.90
16863;DHT22;52193;48.216;-1.698;2024-01-06T15:06:51;13.40;99.90
16863;DHT22;52193;48.216;-1.698;2024-01-06T15:09:18;13.40;99.90
16863;DHT22;52193;48.216;-1.698;2024-01-06T15:11:47;13.40;99.90
16863;DHT22;52193;48.216;-1.698;2024-01-06T15:14:14;13.50;99.90
16863;DHT22;52193;48.216;-1.698;2024-01-06T15:16:40;13.50;99.90
16863;DHT22;52193;48.216;-1.698;2024-01-06T15:19:07;13.60;99.90
16863;DHT22;52193;48.216;-1.698;2024-01-06T15:21:34;13.60;99.90
16863;DHT22;52193;48.216;-1.698;2024-01-06T15:24:02;13.50;99.90